sensor_id;sensor_type;location;lat;lon;timestamp;temperature;humidity
27858;DHT22;16852;51.446;6.528;2023-06-24T00:01:04;21.30;99.90
27858;DHT22;16852;51.446;6.528;2023-06-24T00:03:05;21.30;99.90
27858;DHT22;16852;51.446;6.528;2023-06-24T00:05:08;21.30;99.90
27858;DHT22;16852;51.446;6.528;2023-06-24T00:07:08;21.30;99.90
27858;DHT22;16852;51.446;6.528;2023-06-24T00:09:09;21.20;99.90
27858;DHT22;16852;51.446;6.528;2023-06-24T00:11:10;21.20;99.90
27858;DHT22;16852;51.446;6.528;2023-06-24T00:13:10;21.20;99.90
27858;DHT22;16852;51.446;6.528;2023-06-24T00:15:11;21.20;99.90
27858;DHT22;16852;51.446;6.528;2023-06-24T00:17:12;21.20;99.90
27858;DHT22;16852;51.446;6.528;2023-06-24T00:19:12;21.20;99.90
27858;DHT22;16852;51.446;6.528;2023-06-24T00:21:13;21.20;99.90
27858;DHT22;16852;51.446;6.528;2023-06-24T00:23:22;21.30;99.90
27858;DHT22;16852;51.446;6.528;2023-06-24T00:25:26;21.20;99.90
27858;DHT22;16852;51.446;6.528;2023-06-24T00:27:26;21.20;99.90
27858;DHT22;16852;51.446;6.528;2023-06-24T00:29:27;21.20;99.90
27858;DHT22;16852;51.446;6.528;2023-06-24T00:31:28;21.20;99.90
27858;DHT22;16852;51.446;6.528;2023-06-24T00:33:28;21.20;99.90
27858;DHT22;16852;51.446;6.528;2023-06-24T00:35:29;21.20;99.90
27858;DHT22;16852;51.446;6.528;2023-06-24T00:37:29;21.20;99.90
27858;DHT22;16852;51.446;6.528;2023-06-24T00:39:30;21.10;99.90
27858;DHT22;16852;51.446;6.528;2023-06-24T00:41:35;21.10;99.90
27858;DHT22;16852;51.446;6.528;2023-06-24T00:43:36;21.00;99.90
27858;DHT22;16852;51.446;6.528;2023-06-24T00:45:38;20.90;99.90
27858;DHT22;16852;51.446;6.528;2023-06-24T00:47:40;20.90;99.90
27858;DHT22;16852;51.446;6.528;2023-06-24T00:49:41;20.90;99.90
27858;DHT22;16852;51.446;6.528;2023-06-24T00:51:45;20.90;99.90
27858;DHT22;16852;51.446;6.528;2023-06-24T00:53:50;20.80;99.90
27858;DHT22;16852;51.446;6.528;2023-06-24T00:55:52;20.80;99.90
27858;DHT22;16852;51.446;6.528;2023-06-24T00:57:55;20.90;99.90
27858;DHT22;16852;51.446;6.528;2023-06-24T00:59:57;20.90;99.90
27858;DHT22;16852;51.446;6.528;2023-06-24T01:01:57;20.90;99.90
27858;DHT22;16852;51.446;6.528;2023-06-24T01:03:58;20.90;99.90
27858;DHT22;16852;51.446;6.528;2023-06-24T01:05:59;20.90;99.90
27858;DHT22;16852;51.446;6.528;2023-06-24T01:08:00;20.90;99.90
27858;DHT22;16852;51.446;6.528;2023-06-24T01:10:02;20.80;99.90
27858;DHT22;16852;51.446;6.528;2023-06-24T01:12:06;20.80;99.90
27858;DHT22;16852;51.446;6.528;2023-06-24T01:14:08;20.80;99.90
27858;DHT22;16852;51.446;6.528;2023-06-24T01:16:15;20.80;99.90
27858;DHT22;16852;51.446;6.528;2023-06-24T01:18:40;20.80;99.90
27858;DHT22;16852;51.446;6.528;2023-06-24T01:30:12;20.60;99.90
27858;DHT22;16852;51.446;6.528;2023-06-24T01:32:32;20.60;99.90
27858;DHT22;16852;51.446;6.528;2023-06-24T01:34:40;20.60;99.90
27858;DHT22;16852;51.446;6.528;2023-06-24T01:36:47;20.50;99.90
27858;DHT22;16852;51.446;6.528;2023-06-24T01:38:57;20.50;99.90
27858;DHT22;16852;51.446;6.528;2023-06-24T01:40:59;20.50;99.90
27858;DHT22;16852;51.446;6.528;2023-06-24T01:43:03;20.40;99.90
27858;DHT22;16852;51.446;6.528;2023-06-24T01:45:10;20.40;99.90
27858;DHT22;16852;51.446;6.528;2023-06-24T01:47:16;20.40;99.90
27858;DHT22;16852;51.446;6.528;2023-06-24T01:49:19;20.40;99.90
27858;DHT22;16852;51.446;6.528;2023-06-24T01:51:22;20.50;99.90
27858;DHT22;16852;51.446;6.528;2023-06-24T01:53:24;20.50;99.90
27858;DHT22;16852;51.446;6.528;2023-06-24T01:55:27;20.50;99.90
27858;DHT22;16852;51.446;6.528;2023-06-24T01:57:31;20.60;99.90
27858;DHT22;16852;51.446;6.528;2023-06-24T01:59:33;20.50;99.90
27858;DHT22;16852;51.446;6.528;2023-06-24T02:01:35;20.50;99.90
27858;DHT22;16852;51.446;6.528;2023-06-24T02:03:40;20.50;99.90
27858;DHT22;16852;51.446;6.528;2023-06-24T02:05:42;20.50;99.90
27858;DHT22;16852;51.446;6.528;2023-06-24T02:07:45;20.50;99.90
27858;DHT22;16852;51.446;6.528;2023-06-24T02:09:47;20.50;99.90
27858;DHT22;16852;51.446;6.528;2023-06-24T02:11:48;20.50;99.90
27858;DHT22;16852;51.446;6.528;2023-06-24T02:13:51;20.50;99.90
27858;DHT22;16852;51.446;6.528;2023-06-24T02:15:54;20.50;99.90
27858;DHT22;16852;51.446;6.528;2023-06-24T02:17:55;20.50;99.90
27858;DHT22;16852;51.446;6.528;2023-06-24T02:19:57;20.50;99.90
27858;DHT22;16852;51.446;6.528;2023-06-24T02:22:00;20.50;99.90
27858;DHT22;16852;51.446;6.528;2023-06-24T02:24:02;20.50;99.90
27858;DHT22;16852;51.446;6.528;2023-06-24T02:26:04;20.50;99.90
27858;DHT22;16852;51.446;6.528;2023-06-24T02:28:07;20.50;99.90
27858;DHT22;16852;51.446;6.528;2023-06-24T02:30:09;20.50;99.90
27858;DHT22;16852;51.446;6.528;2023-06-24T02:32:09;20.50;99.90
27858;DHT22;16852;51.446;6.528;2023-06-24T02:34:10;20.60;99.90
27858;DHT22;16852;51.446;6.528;2023-06-24T02:36:11;20.60;99.90
27858;DHT22;16852;51.446;6.528;2023-06-24T02:38:12;20.60;99.90
27858;DHT22;16852;51.446;6.528;2023-06-24T02:40:12;20.50;99.90
27858;DHT22;16852;51.446;6.528;2023-06-24T02:42:13;20.50;99.90
27858;DHT22;16852;51.446;6.528;2023-06-24T02:44:14;20.50;99.90
27858;DHT22;16852;51.446;6.528;2023-06-24T02:46:15;20.50;99.90
27858;DHT22;16852;51.446;6.528;2023-06-24T02:48:19;20.50;99.90
27858;DHT22;16852;51.446;6.528;2023-06-24T02:50:21;20.40;99.90
27858;DHT22;16852;51.446;6.528;2023-06-24T02:52:22;20.40;99.90
27858;DHT22;16852;51.446;6.528;2023-06-24T02:54:23;20.40;99.90
27858;DHT22;16852;51.446;6.528;2023-06-24T02:56:25;20.40;99.90
27858;DHT22;16852;51.446;6.528;2023-06-24T02:58:26;20.40;99.90
27858;DHT22;16852;51.446;6.528;2023-06-24T03:00:31;20.40;99.90
27858;DHT22;16852;51.446;6.528;2023-06-24T03:02:34;20.30;99.90
27858;DHT22;16852;51.446;6.528;2023-06-24T03:04:35;20.30;99.90
27858;DHT22;16852;51.446;6.528;2023-06-24T03:06:39;20.30;99.90
27858;DHT22;16852;51.446;6.528;2023-06-24T03:08:41;20.30;99.90
27858;DHT22;16852;51.446;6.528;2023-06-24T03:10:41;20.30;99.90
27858;DHT22;16852;51.446;6.528;2023-06-24T03:12:42;20.30;99.90
27858;DHT22;16852;51.446;6.528;2023-06-24T03:14:42;20.30;99.90
27858;DHT22;16852;51.446;6.528;2023-06-24T03:16:43;20.30;99.90
27858;DHT22;16852;51.446;6.528;2023-06-24T03:18:44;20.30;99.90
27858;DHT22;16852;51.446;6.528;2023-06-24T03:20:44;20.30;99.90
27858;DHT22;16852;51.446;6.528;2023-06-24T03:22:46;20.30;99.90
27858;DHT22;16852;51.446;6.528;2023-06-24T03:24:46;20.30;99.90
27858;DHT22;16852;51.446;6.528;2023-06-24T03:26:47;20.30;99.90
27858;DHT22;16852;51.446;6.528;2023-06-24T03:28:47;20.30;99.90
27858;DHT22;16852;51.446;6.528;2023-06-24T03:30:48;20.30;99.90
27858;DHT22;16852;51.446;6.528;2023-06-24T03:32:49;20.30;99.90
27858;DHT22;16852;51.446;6.528;2023-06-24T03:34:49;20.30;99.90
27858;DHT22;16852;51.446;6.528;2023-06-24T03:36:50;20.20;99.90
27858;DHT22;16852;51.446;6.528;2023-06-24T03:38:51;20.20;99.90
27858;DHT22;16852;51.446;6.528;2023-06-24T03:40:52;20.10;99.90
27858;DHT22;16852;51.446;6.528;2023-06-24T03:42:53;20.10;99.90
27858;DHT22;16852;51.446;6.528;2023-06-24T03:44:53;20.10;99.90
27858;DHT22;16852;51.446;6.528;2023-06-24T03:46:54;20.10;99.90
27858;DHT22;16852;51.446;6.528;2023-06-24T03:48:54;20.00;99.90
27858;DHT22;16852;51.446;6.528;2023-06-24T03:50:55;20.00;99.90
27858;DHT22;16852;51.446;6.528;2023-06-24T03:52:55;20.10;99.90
27858;DHT22;16852;51.446;6.528;2023-06-24T03:54:56;20.10;99.90
27858;DHT22;16852;51.446;6.528;2023-06-24T03:56:56;20.10;99.90
27858;DHT22;16852;51.446;6.528;2023-06-24T03:58:57;20.10;99.90
27858;DHT22;16852;51.446;6.528;2023-06-24T04:00:59;20.10;99.90
27858;DHT22;16852;51.446;6.528;2023-06-24T04:03:00;20.10;99.90
27858;DHT22;16852;51.446;6.528;2023-06-24T04:05:01;20.10;99.90
27858;DHT22;16852;51.446;6.528;2023-06-24T04:07:02;20.10;99.90
27858;DHT22;16852;51.446;6.528;2023-06-24T04:09:03;20.10;99.90
27858;DHT22;16852;51.446;6.528;2023-06-24T04:11:06;20.10;99.90
27858;DHT22;16852;51.446;6.528;2023-06-24T04:13:08;20.10;99.90
27858;DHT22;16852;51.446;6.528;2023-06-24T04:15:09;20.10;99.90
27858;DHT22;16852;51.446;6.528;2023-06-24T04:17:09;20.20;99.90
27858;DHT22;16852;51.446;6.528;2023-06-24T04:19:10;20.20;99.90
27858;DHT22;16852;51.446;6.528;2023-06-24T04:21:11;20.20;99.90
27858;DHT22;16852;51.446;6.528;2023-06-24T04:23:12;20.20;99.90
27858;DHT22;16852;51.446;6.528;2023-06-24T04:25:14;20.30;99.90
27858;DHT22;16852;51.446;6.528;2023-06-24T04:27:16;20.30;99.90
27858;DHT22;16852;51.446;6.528;2023-06-24T04:29:16;20.30;99.90
27858;DHT22;16852;51.446;6.528;2023-06-24T04:31:17;20.30;99.90
27858;DHT22;16852;51.446;6.528;2023-06-24T04:33:18;20.40;99.90
27858;DHT22;16852;51.446;6.528;2023-06-24T04:35:18;20.40;99.90
27858;DHT22;16852;51.446;6.528;2023-06-24T04:37:19;20.40;99.90
27858;DHT22;16852;51.446;6.528;2023-06-24T04:39:19;20.40;99.90
27858;DHT22;16852;51.446;6.528;2023-06-24T04:41:20;20.40;99.90
27858;DHT22;16852;51.446;6.528;2023-06-24T04:43:21;20.40;99.90
27858;DHT22;16852;51.446;6.528;2023-06-24T04:45:21;20.30;99.90
27858;DHT22;16852;51.446;6.528;2023-06-24T04:47:22;20.30;99.90
27858;DHT22;16852;51.446;6.528;2023-06-24T04:49:23;20.30;99.90
27858;DHT22;16852;51.446;6.528;2023-06-24T04:51:23;20.40;99.90
27858;DHT22;16852;51.446;6.528;2023-06-24T04:53:24;20.40;99.90
27858;DHT22;16852;51.446;6.528;2023-06-24T04:55:25;20.40;99.90
27858;DHT22;16852;51.446;6.528;2023-06-24T04:57:30;20.30;99.90
27858;DHT22;16852;51.446;6.528;2023-06-24T04:59:31;20.40;99.90
27858;DHT22;16852;51.446;6.528;2023-06-24T05:01:31;20.30;99.90
27858;DHT22;16852;51.446;6.528;2023-06-24T05:03:32;20.40;99.90
27858;DHT22;16852;51.446;6.528;2023-06-24T05:05:33;20.40;99.90
27858;DHT22;16852;51.446;6.528;2023-06-24T05:07:33;20.40;99.90
27858;DHT22;16852;51.446;6.528;2023-06-24T05:09:34;20.40;99.90
27858;DHT22;16852;51.446;6.528;2023-06-24T05:11:37;20.40;99.90
27858;DHT22;16852;51.446;6.528;2023-06-24T05:13:39;20.50;99.90
27858;DHT22;16852;51.446;6.528;2023-06-24T05:15:40;20.50;99.90
27858;DHT22;16852;51.446;6.528;2023-06-24T05:17:42;20.60;99.90
27858;DHT22;16852;51.446;6.528;2023-06-24T05:19:42;20.60;99.90
27858;DHT22;16852;51.446;6.528;2023-06-24T05:21:43;20.60;99.90
27858;DHT22;16852;51.446;6.528;2023-06-24T05:23:44;20.70;99.90
27858;DHT22;16852;51.446;6.528;2023-06-24T05:25:45;20.70;99.90
27858;DHT22;16852;51.446;6.528;2023-06-24T05:27:45;20.70;99.90
27858;DHT22;16852;51.446;6.528;2023-06-24T05:29:46;20.80;99.90
27858;DHT22;16852;51.446;6.528;2023-06-24T05:31:47;20.80;99.90
27858;DHT22;16852;51.446;6.528;2023-06-24T05:33:48;20.80;99.90
27858;DHT22;16852;51.446;6.528;2023-06-24T05:35:48;20.80;99.90
27858;DHT22;16852;51.446;6.528;2023-06-24T05:37:49;20.90;99.90
27858;DHT22;16852;51.446;6.528;2023-06-24T05:39:51;20.90;99.90
27858;DHT22;16852;51.446;6.528;2023-06-24T05:41:52;20.90;99.90
27858;DHT22;16852;51.446;6.528;2023-06-24T05:44:03;20.90;99.90
27858;DHT22;16852;51.446;6.528;2023-06-24T05:46:04;20.90;99.90
27858;DHT22;16852;51.446;6.528;2023-06-24T05:48:05;21.00;99.90
27858;DHT22;16852;51.446;6.528;2023-06-24T05:50:06;21.20;99.90
27858;DHT22;16852;51.446;6.528;2023-06-24T05:52:06;21.50;99.90
27858;DHT22;16852;51.446;6.528;2023-06-24T05:54:07;21.80;99.90
27858;DHT22;16852;51.446;6.528;2023-06-24T05:56:10;22.20;99.90
27858;DHT22;16852;51.446;6.528;2023-06-24T05:58:11;22.50;99.90
27858;DHT22;16852;51.446;6.528;2023-06-24T06:00:12;22.90;99.90
27858;DHT22;16852;51.446;6.528;2023-06-24T06:02:12;23.30;99.90
27858;DHT22;16852;51.446;6.528;2023-06-24T06:04:13;23.60;99.90
27858;DHT22;16852;51.446;6.528;2023-06-24T06:06:14;23.90;99.90
27858;DHT22;16852;51.446;6.528;2023-06-24T06:08:14;24.20;99.90
27858;DHT22;16852;51.446;6.528;2023-06-24T06:10:15;24.50;99.90
27858;DHT22;16852;51.446;6.528;2023-06-24T06:12:17;24.70;99.90
27858;DHT22;16852;51.446;6.528;2023-06-24T06:14:18;24.90;99.90
27858;DHT22;16852;51.446;6.528;2023-06-24T06:16:18;25.20;99.90
27858;DHT22;16852;51.446;6.528;2023-06-24T06:18:19;25.40;99.90
27858;DHT22;16852;51.446;6.528;2023-06-24T06:20:20;25.70;99.90
27858;DHT22;16852;51.446;6.528;2023-06-24T06:22:20;26.00;99.90
27858;DHT22;16852;51.446;6.528;2023-06-24T06:24:21;26.30;99.90
27858;DHT22;16852;51.446;6.528;2023-06-24T06:26:21;26.40;99.90
27858;DHT22;16852;51.446;6.528;2023-06-24T06:28:22;26.50;99.90
27858;DHT22;16852;51.446;6.528;2023-06-24T06:30:22;26.50;99.90
27858;DHT22;16852;51.446;6.528;2023-06-24T06:32:23;26.60;99.90
27858;DHT22;16852;51.446;6.528;2023-06-24T06:34:23;26.70;99.90
27858;DHT22;16852;51.446;6.528;2023-06-24T06:36:24;26.80;99.90
27858;DHT22;16852;51.446;6.528;2023-06-24T06:38:25;26.80;99.90
27858;DHT22;16852;51.446;6.528;2023-06-24T06:40:26;26.80;99.90
27858;DHT22;16852;51.446;6.528;2023-06-24T06:42:29;26.90;99.90
27858;DHT22;16852;51.446;6.528;2023-06-24T06:44:30;26.90;99.90
27858;DHT22;16852;51.446;6.528;2023-06-24T06:46:30;26.90;99.90
27858;DHT22;16852;51.446;6.528;2023-06-24T06:48:31;26.90;99.90
27858;DHT22;16852;51.446;6.528;2023-06-24T06:50:31;26.90;99.90
27858;DHT22;16852;51.446;6.528;2023-06-24T06:52:32;26.90;99.90
27858;DHT22;16852;51.446;6.528;2023-06-24T06:54:33;26.90;99.90
27858;DHT22;16852;51.446;6.528;2023-06-24T06:56:33;26.80;99.90
27858;DHT22;16852;51.446;6.528;2023-06-24T06:58:34;26.70;99.90
27858;DHT22;16852;51.446;6.528;2023-06-24T07:00:34;26.70;99.90
27858;DHT22;16852;51.446;6.528;2023-06-24T07:02:35;26.70;99.90
27858;DHT22;16852;51.446;6.528;2023-06-24T07:04:35;26.70;99.90
27858;DHT22;16852;51.446;6.528;2023-06-24T07:06:36;26.60;99.90
27858;DHT22;16852;51.446;6.528;2023-06-24T07:08:37;26.60;99.90
27858;DHT22;16852;51.446;6.528;2023-06-24T07:10:37;26.50;99.90
27858;DHT22;16852;51.446;6.528;2023-06-24T07:12:39;26.50;99.90
27858;DHT22;16852;51.446;6.528;2023-06-24T07:14:39;26.50;99.90
27858;DHT22;16852;51.446;6.528;2023-06-24T07:16:40;26.40;99.10
27858;DHT22;16852;51.446;6.528;2023-06-24T07:18:40;26.40;99.90
27858;DHT22;16852;51.446;6.528;2023-06-24T07:20:41;26.40;99.90
27858;DHT22;16852;51.446;6.528;2023-06-24T07:22:41;26.30;98.00
27858;DHT22;16852;51.446;6.528;2023-06-24T07:24:42;26.30;99.30
27858;DHT22;16852;51.446;6.528;2023-06-24T07:26:43;26.30;98.80
27858;DHT22;16852;51.446;6.528;2023-06-24T07:28:43;26.30;99.90
27858;DHT22;16852;51.446;6.528;2023-06-24T07:30:44;26.30;99.80
27858;DHT22;16852;51.446;6.528;2023-06-24T07:32:45;26.30;99.10
27858;DHT22;16852;51.446;6.528;2023-06-24T07:34:46;26.30;99.80
27858;DHT22;16852;51.446;6.528;2023-06-24T07:36:46;26.40;99.90
27858;DHT22;16852;51.446;6.528;2023-06-24T07:38:47;26.50;99.90
27858;DHT22;16852;51.446;6.528;2023-06-24T07:40:48;26.60;99.10
27858;DHT22;16852;51.446;6.528;2023-06-24T07:42:48;26.50;99.30
27858;DHT22;16852;51.446;6.528;2023-06-24T07:44:49;26.60;99.00
27858;DHT22;16852;51.446;6.528;2023-06-24T07:46:49;26.70;99.60
27858;DHT22;16852;51.446;6.528;2023-06-24T07:48:51;26.80;99.80
27858;DHT22;16852;51.446;6.528;2023-06-24T07:50:52;26.90;99.20
27858;DHT22;16852;51.446;6.528;2023-06-24T07:52:52;26.90;97.30
27858;DHT22;16852;51.446;6.528;2023-06-24T07:54:53;26.90;97.70
27858;DHT22;16852;51.446;6.528;2023-06-24T07:56:53;26.90;97.10
27858;DHT22;16852;51.446;6.528;2023-06-24T07:58:54;26.90;96.90
27858;DHT22;16852;51.446;6.528;2023-06-24T08:00:55;26.90;96.80
27858;DHT22;16852;51.446;6.528;2023-06-24T08:02:57;27.00;96.40
27858;DHT22;16852;51.446;6.528;2023-06-24T08:04:58;27.00;94.90
27858;DHT22;16852;51.446;6.528;2023-06-24T08:06:59;27.10;95.70
27858;DHT22;16852;51.446;6.528;2023-06-24T08:08:59;27.10;94.60
27858;DHT22;16852;51.446;6.528;2023-06-24T08:11:00;27.10;94.70
27858;DHT22;16852;51.446;6.528;2023-06-24T08:13:01;27.10;94.70
27858;DHT22;16852;51.446;6.528;2023-06-24T08:15:01;27.10;94.10
27858;DHT22;16852;51.446;6.528;2023-06-24T08:17:02;27.10;93.90
27858;DHT22;16852;51.446;6.528;2023-06-24T08:19:03;27.20;95.50
27858;DHT22;16852;51.446;6.528;2023-06-24T08:21:03;27.30;94.80
27858;DHT22;16852;51.446;6.528;2023-06-24T08:23:04;27.20;95.00
27858;DHT22;16852;51.446;6.528;2023-06-24T08:25:05;27.20;93.80
27858;DHT22;16852;51.446;6.528;2023-06-24T08:27:05;27.30;94.60
27858;DHT22;16852;51.446;6.528;2023-06-24T08:29:06;27.20;93.60
27858;DHT22;16852;51.446;6.528;2023-06-24T08:31:07;27.30;94.80
27858;DHT22;16852;51.446;6.528;2023-06-24T08:33:08;27.30;96.90
27858;DHT22;16852;51.446;6.528;2023-06-24T08:35:08;27.50;97.40
27858;DHT22;16852;51.446;6.528;2023-06-24T08:37:10;27.50;97.00
27858;DHT22;16852;51.446;6.528;2023-06-24T08:39:10;27.50;95.90
27858;DHT22;16852;51.446;6.528;2023-06-24T08:41:11;27.50;95.80
27858;DHT22;16852;51.446;6.528;2023-06-24T08:43:11;27.60;95.30
27858;DHT22;16852;51.446;6.528;2023-06-24T08:45:12;27.60;95.60
27858;DHT22;16852;51.446;6.528;2023-06-24T08:47:13;27.60;96.20
27858;DHT22;16852;51.446;6.528;2023-06-24T08:51:26;27.60;95.40
27858;DHT22;16852;51.446;6.528;2023-06-24T08:53:28;27.60;95.30
27858;DHT22;16852;51.446;6.528;2023-06-24T08:55:31;27.60;94.90
27858;DHT22;16852;51.446;6.528;2023-06-24T08:57:33;27.60;94.80
27858;DHT22;16852;51.446;6.528;2023-06-24T08:59:34;27.60;95.40
27858;DHT22;16852;51.446;6.528;2023-06-24T09:01:35;27.50;95.10
27858;DHT22;16852;51.446;6.528;2023-06-24T09:03:36;27.60;95.50
27858;DHT22;16852;51.446;6.528;2023-06-24T09:05:36;27.60;94.70
27858;DHT22;16852;51.446;6.528;2023-06-24T09:07:37;27.60;95.30
27858;DHT22;16852;51.446;6.528;2023-06-24T09:09:44;27.50;94.80
27858;DHT22;16852;51.446;6.528;2023-06-24T09:11:54;27.50;94.30
27858;DHT22;16852;51.446;6.528;2023-06-24T09:13:59;27.60;93.90
27858;DHT22;16852;51.446;6.528;2023-06-24T09:16:11;27.50;94.60
27858;DHT22;16852;51.446;6.528;2023-06-24T09:18:13;27.60;95.30
27858;DHT22;16852;51.446;6.528;2023-06-24T09:20:19;27.60;96.10
27858;DHT22;16852;51.446;6.528;2023-06-24T09:22:22;27.70;95.10
27858;DHT22;16852;51.446;6.528;2023-06-24T09:24:27;27.70;95.20
27858;DHT22;16852;51.446;6.528;2023-06-24T09:26:28;27.70;92.20
27858;DHT22;16852;51.446;6.528;2023-06-24T09:28:30;27.70;91.70
27858;DHT22;16852;51.446;6.528;2023-06-24T09:30:30;27.70;92.60
27858;DHT22;16852;51.446;6.528;2023-06-24T09:32:31;27.70;91.80
27858;DHT22;16852;51.446;6.528;2023-06-24T09:34:32;27.70;91.30
27858;DHT22;16852;51.446;6.528;2023-06-24T09:36:33;27.70;92.20
27858;DHT22;16852;51.446;6.528;2023-06-24T09:38:35;27.70;90.90
27858;DHT22;16852;51.446;6.528;2023-06-24T09:40:36;27.70;91.00
27858;DHT22;16852;51.446;6.528;2023-06-24T09:42:53;27.70;91.70
27858;DHT22;16852;51.446;6.528;2023-06-24T09:44:55;27.70;92.60
27858;DHT22;16852;51.446;6.528;2023-06-24T09:46:56;27.80;92.00
27858;DHT22;16852;51.446;6.528;2023-06-24T09:49:01;27.90;90.30
27858;DHT22;16852;51.446;6.528;2023-06-24T09:51:06;27.90;90.00
27858;DHT22;16852;51.446;6.528;2023-06-24T09:53:12;28.00;91.50
27858;DHT22;16852;51.446;6.528;2023-06-24T09:55:14;28.00;91.50
27858;DHT22;16852;51.446;6.528;2023-06-24T09:57:18;28.00;90.70
27858;DHT22;16852;51.446;6.528;2023-06-24T09:59:21;28.10;90.10
27858;DHT22;16852;51.446;6.528;2023-06-24T10:01:24;28.10;91.00
27858;DHT22;16852;51.446;6.528;2023-06-24T10:03:25;28.20;92.50
27858;DHT22;16852;51.446;6.528;2023-06-24T10:05:25;28.30;93.00
27858;DHT22;16852;51.446;6.528;2023-06-24T10:07:26;28.30;91.50
27858;DHT22;16852;51.446;6.528;2023-06-24T10:09:28;28.30;92.20
27858;DHT22;16852;51.446;6.528;2023-06-24T10:11:29;28.30;91.10
27858;DHT22;16852;51.446;6.528;2023-06-24T10:13:30;28.40;91.20
27858;DHT22;16852;51.446;6.528;2023-06-24T10:15:31;28.40;91.40
27858;DHT22;16852;51.446;6.528;2023-06-24T10:17:32;28.40;89.20
27858;DHT22;16852;51.446;6.528;2023-06-24T10:19:40;28.50;90.10
27858;DHT22;16852;51.446;6.528;2023-06-24T10:22:13;28.60;92.60
27858;DHT22;16852;51.446;6.528;2023-06-24T10:26:30;28.70;90.10
27858;DHT22;16852;51.446;6.528;2023-06-24T10:31:05;28.80;91.10
27858;DHT22;16852;51.446;6.528;2023-06-24T10:33:10;28.80;90.40
27858;DHT22;16852;51.446;6.528;2023-06-24T10:35:24;28.80;91.20
27858;DHT22;16852;51.446;6.528;2023-06-24T10:37:26;28.80;87.40
27858;DHT22;16852;51.446;6.528;2023-06-24T10:41:54;28.80;84.50
27858;DHT22;16852;51.446;6.528;2023-06-24T10:43:56;28.90;88.60
27858;DHT22;16852;51.446;6.528;2023-06-24T10:45:57;28.80;86.20
27858;DHT22;16852;51.446;6.528;2023-06-24T10:47:58;28.80;86.70
27858;DHT22;16852;51.446;6.528;2023-06-24T10:50:01;28.80;90.30
27858;DHT22;16852;51.446;6.528;2023-06-24T10:52:02;28.90;87.80
27858;DHT22;16852;51.446;6.528;2023-06-24T10:54:02;28.90;85.90
27858;DHT22;16852;51.446;6.528;2023-06-24T10:56:03;28.90;86.50
27858;DHT22;16852;51.446;6.528;2023-06-24T10:58:08;29.00;86.10
27858;DHT22;16852;51.446;6.528;2023-06-24T11:00:10;28.90;81.70
27858;DHT22;16852;51.446;6.528;2023-06-24T11:02:14;29.00;83.30
27858;DHT22;16852;51.446;6.528;2023-06-24T11:04:15;29.00;82.80
27858;DHT22;16852;51.446;6.528;2023-06-24T11:06:15;28.90;79.30
27858;DHT22;16852;51.446;6.528;2023-06-24T11:08:16;29.00;86.30
27858;DHT22;16852;51.446;6.528;2023-06-24T11:10:17;29.00;84.90
27858;DHT22;16852;51.446;6.528;2023-06-24T11:12:18;29.00;82.50
27858;DHT22;16852;51.446;6.528;2023-06-24T11:14:22;29.00;83.40
27858;DHT22;16852;51.446;6.528;2023-06-24T11:16:23;29.00;75.90
27858;DHT22;16852;51.446;6.528;2023-06-24T11:18:23;29.00;80.00
27858;DHT22;16852;51.446;6.528;2023-06-24T11:20:24;29.00;81.60
27858;DHT22;16852;51.446;6.528;2023-06-24T11:22:25;29.00;79.50
27858;DHT22;16852;51.446;6.528;2023-06-24T11:24:27;29.10;77.90
27858;DHT22;16852;51.446;6.528;2023-06-24T11:26:28;29.10;78.90
27858;DHT22;16852;51.446;6.528;2023-06-24T11:28:31;29.10;83.20
27858;DHT22;16852;51.446;6.528;2023-06-24T11:30:35;29.20;82.90
27858;DHT22;16852;51.446;6.528;2023-06-24T11:32:36;29.20;78.40
27858;DHT22;16852;51.446;6.528;2023-06-24T11:34:37;29.20;74.00
27858;DHT22;16852;51.446;6.528;2023-06-24T11:36:38;29.20;75.30
27858;DHT22;16852;51.446;6.528;2023-06-24T11:38:39;29.20;78.70
27858;DHT22;16852;51.446;6.528;2023-06-24T11:40:39;29.30;83.40
27858;DHT22;16852;51.446;6.528;2023-06-24T11:42:41;29.20;84.00
27858;DHT22;16852;51.446;6.528;2023-06-24T11:44:44;29.20;75.80
27858;DHT22;16852;51.446;6.528;2023-06-24T11:46:45;29.20;75.60
27858;DHT22;16852;51.446;6.528;2023-06-24T11:48:45;29.30;70.20
27858;DHT22;16852;51.446;6.528;2023-06-24T11:50:53;29.20;71.70
27858;DHT22;16852;51.446;6.528;2023-06-24T11:52:54;29.20;78.00
27858;DHT22;16852;51.446;6.528;2023-06-24T11:54:55;29.20;79.00
27858;DHT22;16852;51.446;6.528;2023-06-24T11:56:55;29.20;76.90
27858;DHT22;16852;51.446;6.528;2023-06-24T11:58:56;29.10;77.00
27858;DHT22;16852;51.446;6.528;2023-06-24T12:00:57;29.10;75.50
27858;DHT22;16852;51.446;6.528;2023-06-24T12:03:00;29.10;70.70
27858;DHT22;16852;51.446;6.528;2023-06-24T12:05:02;29.10;68.10
27858;DHT22;16852;51.446;6.528;2023-06-24T12:07:03;29.10;64.40
27858;DHT22;16852;51.446;6.528;2023-06-24T12:09:03;29.20;68.10
27858;DHT22;16852;51.446;6.528;2023-06-24T12:11:04;29.20;63.40
27858;DHT22;16852;51.446;6.528;2023-06-24T12:13:05;29.20;64.50
27858;DHT22;16852;51.446;6.528;2023-06-24T12:15:07;29.20;65.50
27858;DHT22;16852;51.446;6.528;2023-06-24T12:17:07;29.20;61.10
27858;DHT22;16852;51.446;6.528;2023-06-24T12:19:08;29.20;64.20
27858;DHT22;16852;51.446;6.528;2023-06-24T12:21:10;29.30;66.90
27858;DHT22;16852;51.446;6.528;2023-06-24T12:23:11;29.30;72.90
27858;DHT22;16852;51.446;6.528;2023-06-24T12:25:11;29.40;70.00
27858;DHT22;16852;51.446;6.528;2023-06-24T12:27:12;29.40;75.80
27858;DHT22;16852;51.446;6.528;2023-06-24T12:29:13;29.40;71.40
27858;DHT22;16852;51.446;6.528;2023-06-24T12:31:13;29.50;73.60
27858;DHT22;16852;51.446;6.528;2023-06-24T12:33:14;29.50;67.50
27858;DHT22;16852;51.446;6.528;2023-06-24T12:35:14;29.50;68.90
27858;DHT22;16852;51.446;6.528;2023-06-24T12:37:15;29.50;67.10
27858;DHT22;16852;51.446;6.528;2023-06-24T12:39:15;29.50;66.50
27858;DHT22;16852;51.446;6.528;2023-06-24T12:41:16;29.50;67.70
27858;DHT22;16852;51.446;6.528;2023-06-24T12:43:17;29.60;67.30
27858;DHT22;16852;51.446;6.528;2023-06-24T12:45:17;29.50;66.20
27858;DHT22;16852;51.446;6.528;2023-06-24T12:47:18;29.50;67.80
27858;DHT22;16852;51.446;6.528;2023-06-24T12:49:19;29.50;64.40
27858;DHT22;16852;51.446;6.528;2023-06-24T12:51:19;29.50;65.80
27858;DHT22;16852;51.446;6.528;2023-06-24T12:53:21;29.60;70.70
27858;DHT22;16852;51.446;6.528;2023-06-24T12:55:22;29.60;71.70
27858;DHT22;16852;51.446;6.528;2023-06-24T12:57:22;29.60;72.60
27858;DHT22;16852;51.446;6.528;2023-06-24T12:59:23;29.60;69.50
27858;DHT22;16852;51.446;6.528;2023-06-24T13:01:24;29.70;72.50
27858;DHT22;16852;51.446;6.528;2023-06-24T13:03:25;29.70;71.10
27858;DHT22;16852;51.446;6.528;2023-06-24T13:05:25;29.70;67.90
27858;DHT22;16852;51.446;6.528;2023-06-24T13:07:26;29.80;70.00